sensor_id;sensor_type;location;lat;lon;timestamp;P1;durP1;ratioP1;P2;durP2;ratioP2
68523;SDS011;55524;51.380;13.372;2023-03-30T00:01:06;5.47;;;3.63;;
68523;SDS011;55524;51.380;13.372;2023-03-30T00:03:36;5.40;;;3.30;;
68523;SDS011;55524;51.380;13.372;2023-03-30T00:06:04;3.55;;;3.25;;
68523;SDS011;55524;51.380;13.372;2023-03-30T00:08:31;4.20;;;3.40;;
68523;SDS011;55524;51.380;13.372;2023-03-30T00:11:04;4.35;;;3.35;;
68523;SDS011;55524;51.380;13.372;2023-03-30T00:13:33;5.47;;;3.40;;
68523;SDS011;55524;51.380;13.372;2023-03-30T00:16:01;6.90;;;3.53;;
68523;SDS011;55524;51.380;13.372;2023-03-30T00:18:28;4.72;;;3.40;;
68523;SDS011;55524;51.380;13.372;2023-03-30T00:20:55;5.05;;;3.30;;
68523;SDS011;55524;51.380;13.372;2023-03-30T00:23:26;4.07;;;3.50;;
68523;SDS011;55524;51.380;13.372;2023-03-30T00:25:53;4.45;;;3.65;;
68523;SDS011;55524;51.380;13.372;2023-03-30T00:28:20;4.05;;;3.38;;
68523;SDS011;55524;51.380;13.372;2023-03-30T00:30:47;6.05;;;3.55;;
68523;SDS011;55524;51.380;13.372;2023-03-30T00:33:14;4.68;;;3.65;;
68523;SDS011;55524;51.380;13.372;2023-03-30T00:35:40;5.07;;;3.30;;
68523;SDS011;55524;51.380;13.372;2023-03-30T00:38:07;3.97;;;3.58;;
68523;SDS011;55524;51.380;13.372;2023-03-30T00:40:33;5.05;;;3.65;;
68523;SDS011;55524;51.380;13.372;2023-03-30T00:43:01;6.63;;;4.00;;
68523;SDS011;55524;51.380;13.372;2023-03-30T00:45:32;7.93;;;3.97;;
68523;SDS011;55524;51.380;13.372;2023-03-30T00:48:02;6.60;;;4.50;;
68523;SDS011;55524;51.380;13.372;2023-03-30T00:53:09;4.22;;;3.83;;
68523;SDS011;55524;51.380;13.372;2023-03-30T00:55:46;6.28;;;4.40;;
68523;SDS011;55524;51.380;13.372;2023-03-30T00:58:14;5.40;;;4.47;;
68523;SDS011;55524;51.380;13.372;2023-03-30T01:00:43;6.32;;;4.53;;
68523;SDS011;55524;51.380;13.372;2023-03-30T01:03:33;5.32;;;4.20;;
68523;SDS011;55524;51.380;13.372;2023-03-30T01:06:00;7.40;;;4.47;;
68523;SDS011;55524;51.380;13.372;2023-03-30T01:08:30;5.03;;;3.97;;
68523;SDS011;55524;51.380;13.372;2023-03-30T01:10:57;6.45;;;4.50;;
68523;SDS011;55524;51.380;13.372;2023-03-30T01:13:28;4.85;;;4.00;;
68523;SDS011;55524;51.380;13.372;2023-03-30T01:44:07;5.05;;;4.30;;
68523;SDS011;55524;51.380;13.372;2023-03-30T01:49:45;10.48;;;4.55;;
68523;SDS011;55524;51.380;13.372;2023-03-30T01:57:44;6.15;;;4.50;;
68523;SDS011;55524;51.380;13.372;2023-03-30T02:00:15;9.40;;;4.47;;
68523;SDS011;55524;51.380;13.372;2023-03-30T02:02:46;5.38;;;4.50;;
68523;SDS011;55524;51.380;13.372;2023-03-30T02:05:19;7.47;;;4.45;;
68523;SDS011;55524;51.380;13.372;2023-03-30T02:07:49;4.80;;;4.10;;
68523;SDS011;55524;51.380;13.372;2023-03-30T02:10:19;6.47;;;3.97;;
68523;SDS011;55524;51.380;13.372;2023-03-30T02:12:51;5.85;;;4.00;;
68523;SDS011;55524;51.380;13.372;2023-03-30T02:15:19;6.88;;;4.03;;
68523;SDS011;55524;51.380;13.372;2023-03-30T02:17:47;5.72;;;4.22;;
68523;SDS011;55524;51.380;13.372;2023-03-30T02:20:13;5.75;;;4.30;;
68523;SDS011;55524;51.380;13.372;2023-03-30T02:22:41;5.28;;;4.50;;
68523;SDS011;55524;51.380;13.372;2023-03-30T02:25:09;4.50;;;3.92;;
68523;SDS011;55524;51.380;13.372;2023-03-30T02:27:36;5.97;;;4.03;;
68523;SDS011;55524;51.380;13.372;2023-03-30T02:30:03;5.03;;;4.13;;
68523;SDS011;55524;51.380;13.372;2023-03-30T02:32:33;4.30;;;3.90;;
68523;SDS011;55524;51.380;13.372;2023-03-30T02:53:30;6.30;;;4.20;;
68523;SDS011;55524;51.380;13.372;2023-03-30T02:56:13;7.72;;;4.78;;
68523;SDS011;55524;51.380;13.372;2023-03-30T03:01:42;5.15;;;4.25;;
68523;SDS011;55524;51.380;13.372;2023-03-30T03:04:17;6.43;;;4.38;;
68523;SDS011;55524;51.380;13.372;2023-03-30T03:06:46;4.38;;;3.75;;
68523;SDS011;55524;51.380;13.372;2023-03-30T03:09:17;9.13;;;4.63;;
68523;SDS011;55524;51.380;13.372;2023-03-30T03:11:44;8.35;;;3.85;;
68523;SDS011;55524;51.380;13.372;2023-03-30T03:14:10;7.45;;;4.55;;
68523;SDS011;55524;51.380;13.372;2023-03-30T03:16:37;4.63;;;3.92;;
68523;SDS011;55524;51.380;13.372;2023-03-30T03:19:03;7.85;;;4.35;;
68523;SDS011;55524;51.380;13.372;2023-03-30T03:21:29;9.93;;;4.40;;
68523;SDS011;55524;51.380;13.372;2023-03-30T03:23:55;8.63;;;4.50;;
68523;SDS011;55524;51.380;13.372;2023-03-30T03:26:22;8.85;;;4.22;;
68523;SDS011;55524;51.380;13.372;2023-03-30T03:28:48;7.63;;;4.53;;
68523;SDS011;55524;51.380;13.372;2023-03-30T03:31:14;7.90;;;4.28;;
68523;SDS011;55524;51.380;13.372;2023-03-30T03:33:41;8.60;;;4.57;;
68523;SDS011;55524;51.380;13.372;2023-03-30T03:36:07;8.15;;;4.97;;
68523;SDS011;55524;51.380;13.372;2023-03-30T03:38:36;8.88;;;4.80;;
68523;SDS011;55524;51.380;13.372;2023-03-30T03:41:02;7.13;;;4.93;;
68523;SDS011;55524;51.380;13.372;2023-03-30T03:43:29;9.05;;;4.90;;
68523;SDS011;55524;51.380;13.372;2023-03-30T03:45:55;6.57;;;4.65;;
68523;SDS011;55524;51.380;13.372;2023-03-30T03:48:23;8.48;;;4.97;;
68523;SDS011;55524;51.380;13.372;2023-03-30T03:50:53;7.38;;;5.05;;
68523;SDS011;55524;51.380;13.372;2023-03-30T03:55:48;6.57;;;4.70;;
68523;SDS011;55524;51.380;13.372;2023-03-30T03:58:14;7.43;;;4.93;;
68523;SDS011;55524;51.380;13.372;2023-03-30T04:00:41;8.63;;;4.78;;
68523;SDS011;55524;51.380;13.372;2023-03-30T04:03:08;5.85;;;4.47;;
68523;SDS011;55524;51.380;13.372;2023-03-30T04:05:36;8.82;;;6.00;;
68523;SDS011;55524;51.380;13.372;2023-03-30T04:08:03;6.43;;;5.45;;
68523;SDS011;55524;51.380;13.372;2023-03-30T04:10:29;9.00;;;5.43;;
68523;SDS011;55524;51.380;13.372;2023-03-30T04:12:56;9.30;;;5.38;;
68523;SDS011;55524;51.380;13.372;2023-03-30T04:15:23;8.38;;;5.25;;
68523;SDS011;55524;51.380;13.372;2023-03-30T04:17:49;10.45;;;4.88;;
68523;SDS011;55524;51.380;13.372;2023-03-30T04:20:22;8.43;;;5.57;;
68523;SDS011;55524;51.380;13.372;2023-03-30T04:22:52;9.32;;;5.72;;
68523;SDS011;55524;51.380;13.372;2023-03-30T04:25:24;8.48;;;6.15;;
68523;SDS011;55524;51.380;13.372;2023-03-30T04:27:51;9.07;;;5.72;;
68523;SDS011;55524;51.380;13.372;2023-03-30T04:30:18;9.75;;;5.97;;
68523;SDS011;55524;51.380;13.372;2023-03-30T04:32:46;10.13;;;6.03;;
68523;SDS011;55524;51.380;13.372;2023-03-30T04:35:26;13.00;;;6.80;;
68523;SDS011;55524;51.380;13.372;2023-03-30T04:37:56;9.85;;;6.68;;
68523;SDS011;55524;51.380;13.372;2023-03-30T04:40:22;9.98;;;7.22;;
68523;SDS011;55524;51.380;13.372;2023-03-30T04:42:49;11.20;;;7.18;;
68523;SDS011;55524;51.380;13.372;2023-03-30T04:45:15;10.40;;;7.10;;
68523;SDS011;55524;51.380;13.372;2023-03-30T04:47:45;13.25;;;7.90;;
68523;SDS011;55524;51.380;13.372;2023-03-30T04:50:11;15.45;;;8.25;;
68523;SDS011;55524;51.380;13.372;2023-03-30T04:52:38;16.27;;;8.93;;
68523;SDS011;55524;51.380;13.372;2023-03-30T04:55:05;13.63;;;8.02;;
68523;SDS011;55524;51.380;13.372;2023-03-30T04:57:33;18.83;;;8.88;;
68523;SDS011;55524;51.380;13.372;2023-03-30T05:00:00;15.30;;;8.65;;
68523;SDS011;55524;51.380;13.372;2023-03-30T05:02:26;14.55;;;9.13;;
68523;SDS011;55524;51.380;13.372;2023-03-30T05:04:52;19.10;;;9.30;;
68523;SDS011;55524;51.380;13.372;2023-03-30T05:07:18;19.08;;;8.98;;
68523;SDS011;55524;51.380;13.372;2023-03-30T05:09:45;15.45;;;9.45;;
68523;SDS011;55524;51.380;13.372;2023-03-30T05:12:11;15.25;;;9.75;;
68523;SDS011;55524;51.380;13.372;2023-03-30T05:14:39;18.33;;;9.77;;
68523;SDS011;55524;51.380;13.372;2023-03-30T05:17:06;15.85;;;9.18;;
68523;SDS011;55524;51.380;13.372;2023-03-30T05:19:33;15.52;;;9.82;;
68523;SDS011;55524;51.380;13.372;2023-03-30T05:21:59;15.38;;;8.60;;
68523;SDS011;55524;51.380;13.372;2023-03-30T05:24:25;16.13;;;9.55;;
68523;SDS011;55524;51.380;13.372;2023-03-30T05:26:52;16.52;;;9.98;;
68523;SDS011;55524;51.380;13.372;2023-03-30T05:29:18;19.15;;;10.02;;
68523;SDS011;55524;51.380;13.372;2023-03-30T05:31:44;18.65;;;9.68;;
68523;SDS011;55524;51.380;13.372;2023-03-30T05:34:11;16.98;;;9.77;;
68523;SDS011;55524;51.380;13.372;2023-03-30T05:36:37;12.65;;;8.90;;
68523;SDS011;55524;51.380;13.372;2023-03-30T05:39:03;18.08;;;8.63;;
68523;SDS011;55524;51.380;13.372;2023-03-30T05:41:30;27.00;;;11.65;;
68523;SDS011;55524;51.380;13.372;2023-03-30T05:43:56;22.60;;;10.27;;
68523;SDS011;55524;51.380;13.372;2023-03-30T05:46:23;17.80;;;9.40;;
68523;SDS011;55524;51.380;13.372;2023-03-30T05:48:49;18.67;;;9.30;;
68523;SDS011;55524;51.380;13.372;2023-03-30T05:51:15;11.88;;;7.75;;
68523;SDS011;55524;51.380;13.372;2023-03-30T05:53:41;12.55;;;7.35;;
68523;SDS011;55524;51.380;13.372;2023-03-30T05:56:09;12.43;;;7.25;;
68523;SDS011;55524;51.380;13.372;2023-03-30T05:58:35;24.20;;;8.70;;
68523;SDS011;55524;51.380;13.372;2023-03-30T06:01:02;17.58;;;8.05;;
68523;SDS011;55524;51.380;13.372;2023-03-30T06:03:29;16.40;;;6.97;;
68523;SDS011;55524;51.380;13.372;2023-03-30T06:05:56;12.00;;;6.55;;
68523;SDS011;55524;51.380;13.372;2023-03-30T06:08:22;11.98;;;7.15;;
68523;SDS011;55524;51.380;13.372;2023-03-30T06:10:54;12.38;;;6.70;;
68523;SDS011;55524;51.380;13.372;2023-03-30T06:13:21;32.37;;;8.03;;
68523;SDS011;55524;51.380;13.372;2023-03-30T06:15:48;10.07;;;4.97;;
68523;SDS011;55524;51.380;13.372;2023-03-30T06:18:14;7.43;;;4.63;;
68523;SDS011;55524;51.380;13.372;2023-03-30T06:20:41;14.93;;;4.10;;
68523;SDS011;55524;51.380;13.372;2023-03-30T06:23:11;7.60;;;4.45;;
68523;SDS011;55524;51.380;13.372;2023-03-30T06:25:37;6.68;;;4.25;;
68523;SDS011;55524;51.380;13.372;2023-03-30T06:28:03;7.35;;;4.13;;
68523;SDS011;55524;51.380;13.372;2023-03-30T06:30:30;9.35;;;3.80;;
68523;SDS011;55524;51.380;13.372;2023-03-30T06:32:56;8.20;;;3.70;;
68523;SDS011;55524;51.380;13.372;2023-03-30T06:35:23;8.73;;;3.80;;
68523;SDS011;55524;51.380;13.372;2023-03-30T06:37:49;13.18;;;3.00;;
68523;SDS011;55524;51.380;13.372;2023-03-30T06:40:15;4.47;;;2.60;;
68523;SDS011;55524;51.380;13.372;2023-03-30T06:42:43;14.50;;;2.53;;
68523;SDS011;55524;51.380;13.372;2023-03-30T06:45:09;15.70;;;2.30;;
68523;SDS011;55524;51.380;13.372;2023-03-30T06:47:36;6.40;;;1.90;;
68523;SDS011;55524;51.380;13.372;2023-03-30T06:50:05;9.57;;;2.13;;
68523;SDS011;55524;51.380;13.372;2023-03-30T06:52:38;8.15;;;2.00;;
68523;SDS011;55524;51.380;13.372;2023-03-30T06:55:04;3.25;;;1.60;;
68523;SDS011;55524;51.380;13.372;2023-03-30T06:57:31;3.20;;;1.30;;
68523;SDS011;55524;51.380;13.372;2023-03-30T06:59:57;16.65;;;2.28;;
68523;SDS011;55524;51.380;13.372;2023-03-30T07:02:23;4.97;;;1.60;;
68523;SDS011;55524;51.380;13.372;2023-03-30T07:04:50;13.23;;;1.95;;
68523;SDS011;55524;51.380;13.372;2023-03-30T07:07:17;9.77;;;1.77;;
68523;SDS011;55524;51.380;13.372;2023-03-30T07:09:44;3.25;;;1.52;;
68523;SDS011;55524;51.380;13.372;2023-03-30T07:12:11;9.10;;;1.83;;
68523;SDS011;55524;51.380;13.372;2023-03-30T07:14:37;10.05;;;1.85;;
68523;SDS011;55524;51.380;13.372;2023-03-30T07:17:03;6.50;;;1.88;;
68523;SDS011;55524;51.380;13.372;2023-03-30T07:19:31;5.35;;;1.52;;
68523;SDS011;55524;51.380;13.372;2023-03-30T07:21:57;3.90;;;1.63;;
68523;SDS011;55524;51.380;13.372;2023-03-30T07:24:23;6.63;;;1.73;;
68523;SDS011;55524;51.380;13.372;2023-03-30T07:26:50;4.28;;;1.70;;
68523;SDS011;55524;51.380;13.372;2023-03-30T07:29:16;2.38;;;1.60;;
68523;SDS011;55524;51.380;13.372;2023-03-30T07:31:42;7.05;;;2.00;;
68523;SDS011;55524;51.380;13.372;2023-03-30T07:34:08;5.03;;;1.80;;
68523;SDS011;55524;51.380;13.372;2023-03-30T07:36:35;5.60;;;1.75;;
68523;SDS011;55524;51.380;13.372;2023-03-30T07:39:01;6.70;;;2.22;;
68523;SDS011;55524;51.380;13.372;2023-03-30T07:41:28;9.25;;;2.45;;
68523;SDS011;55524;51.380;13.372;2023-03-30T07:43:54;7.68;;;1.73;;
68523;SDS011;55524;51.380;13.372;2023-03-30T07:46:20;7.80;;;1.73;;
68523;SDS011;55524;51.380;13.372;2023-03-30T07:48:47;10.40;;;2.05;;
68523;SDS011;55524;51.380;13.372;2023-03-30T07:51:13;7.68;;;2.63;;
68523;SDS011;55524;51.380;13.372;2023-03-30T07:53:40;3.10;;;1.65;;
68523;SDS011;55524;51.380;13.372;2023-03-30T07:56:06;9.75;;;1.92;;
68523;SDS011;55524;51.380;13.372;2023-03-30T07:58:32;4.78;;;1.88;;
68523;SDS011;55524;51.380;13.372;2023-03-30T08:00:59;4.25;;;1.80;;
68523;SDS011;55524;51.380;13.372;2023-03-30T08:03:27;8.18;;;1.67;;
68523;SDS011;55524;51.380;13.372;2023-03-30T08:05:59;9.13;;;2.65;;
68523;SDS011;55524;51.380;13.372;2023-03-30T08:08:29;7.93;;;2.28;;
68523;SDS011;55524;51.380;13.372;2023-03-30T08:10:57;6.45;;;1.80;;
68523;SDS011;55524;51.380;13.372;2023-03-30T08:13:24;6.47;;;1.83;;
68523;SDS011;55524;51.380;13.372;2023-03-30T08:15:51;4.97;;;1.80;;
68523;SDS011;55524;51.380;13.372;2023-03-30T08:18:18;6.70;;;2.20;;
68523;SDS011;55524;51.380;13.372;2023-03-30T08:20:48;3.55;;;1.88;;
68523;SDS011;55524;51.380;13.372;2023-03-30T08:23:16;7.00;;;2.10;;
68523;SDS011;55524;51.380;13.372;2023-03-30T08:25:43;9.25;;;1.98;;
68523;SDS011;55524;51.380;13.372;2023-03-30T08:28:10;7.70;;;2.10;;
68523;SDS011;55524;51.380;13.372;2023-03-30T08:30:36;6.57;;;1.90;;
68523;SDS011;55524;51.380;13.372;2023-03-30T08:33:03;10.18;;;2.13;;
68523;SDS011;55524;51.380;13.372;2023-03-30T08:35:29;11.40;;;1.70;;
68523;SDS011;55524;51.380;13.372;2023-03-30T08:37:55;5.50;;;1.80;;
68523;SDS011;55524;51.380;13.372;2023-03-30T08:40:21;6.18;;;2.42;;
68523;SDS011;55524;51.380;13.372;2023-03-30T08:43:24;5.65;;;1.88;;
68523;SDS011;55524;51.380;13.372;2023-03-30T08:45:50;11.02;;;2.03;;
68523;SDS011;55524;51.380;13.372;2023-03-30T08:48:21;5.18;;;1.85;;
68523;SDS011;55524;51.380;13.372;2023-03-30T08:51:04;9.02;;;1.92;;
68523;SDS011;55524;51.380;13.372;2023-03-30T08:53:42;5.03;;;1.90;;
68523;SDS011;55524;51.380;13.372;2023-03-30T08:56:17;19.10;;;1.92;;
68523;SDS011;55524;51.380;13.372;2023-03-30T09:01:35;6.15;;;2.13;;
68523;SDS011;55524;51.380;13.372;2023-03-30T09:06:55;8.68;;;2.28;;
68523;SDS011;55524;51.380;13.372;2023-03-30T09:09:27;9.25;;;2.00;;
68523;SDS011;55524;51.380;13.372;2023-03-30T09:12:06;4.60;;;1.60;;
68523;SDS011;55524;51.380;13.372;2023-03-30T09:14:47;6.07;;;2.75;;
68523;SDS011;55524;51.380;13.372;2023-03-30T09:17:28;7.40;;;1.67;;
68523;SDS011;55524;51.380;13.372;2023-03-30T09:19:57;5.75;;;1.60;;
68523;SDS011;55524;51.380;13.372;2023-03-30T09:22:33;8.60;;;2.10;;
68523;SDS011;55524;51.380;13.372;2023-03-30T09:25:12;6.03;;;1.92;;
68523;SDS011;55524;51.380;13.372;2023-03-30T09:27:46;9.40;;;1.70;;
68523;SDS011;55524;51.380;13.372;2023-03-30T09:30:18;7.70;;;2.03;;
68523;SDS011;55524;51.380;13.372;2023-03-30T09:33:10;3.78;;;2.35;;
68523;SDS011;55524;51.380;13.372;2023-03-30T09:35:42;6.82;;;2.58;;
68523;SDS011;55524;51.380;13.372;2023-03-30T09:38:21;5.93;;;1.90;;
68523;SDS011;55524;51.380;13.372;2023-03-30T09:43:35;12.60;;;2.30;;
68523;SDS011;55524;51.380;13.372;2023-03-30T09:46:10;4.80;;;1.80;;
68523;SDS011;55524;51.380;13.372;2023-03-30T09:48:39;7.43;;;2.00;;
68523;SDS011;55524;51.380;13.372;2023-03-30T09:51:20;6.00;;;1.83;;
68523;SDS011;55524;51.380;13.372;2023-03-30T09:53:58;11.40;;;2.22;;
68523;SDS011;55524;51.380;13.372;2023-03-30T10:01:47;6.18;;;2.00;;
68523;SDS011;55524;51.380;13.372;2023-03-30T10:04:13;16.52;;;2.50;;
68523;SDS011;55524;51.380;13.372;2023-03-30T10:06:46;35.45;;;3.72;;
68523;SDS011;55524;51.380;13.372;2023-03-30T10:09:14;11.15;;;2.05;;
68523;SDS011;55524;51.380;13.372;2023-03-30T10:11:46;8.60;;;2.30;;
68523;SDS011;55524;51.380;13.372;2023-03-30T10:14:33;9.40;;;2.42;;
68523;SDS011;55524;51.380;13.372;2023-03-30T10:17:00;6.30;;;2.10;;
68523;SDS011;55524;51.380;13.372;2023-03-30T10:19:27;5.30;;;1.98;;
68523;SDS011;55524;51.380;13.372;2023-03-30T10:21:57;8.40;;;2.13;;
68523;SDS011;55524;51.380;13.372;2023-03-30T10:24:29;10.88;;;1.90;;
68523;SDS011;55524;51.380;13.372;2023-03-30T10:27:18;7.10;;;2.00;;
68523;SDS011;55524;51.380;13.372;2023-03-30T10:29:47;7.53;;;2.03;;
68523;SDS011;55524;51.380;13.372;2023-03-30T10:32:17;13.00;;;2.20;;
68523;SDS011;55524;51.380;13.372;2023-03-30T10:34:56;6.53;;;2.03;;
68523;SDS011;55524;51.380;13.372;2023-03-30T10:37:38;11.30;;;2.72;;
68523;SDS011;55524;51.380;13.372;2023-03-30T10:40:15;4.13;;;1.73;;
68523;SDS011;55524;51.380;13.372;2023-03-30T10:42:53;7.32;;;1.65;;
68523;SDS011;55524;51.380;13.372;2023-03-30T11:04:56;18.23;;;2.33;;
68523;SDS011;55524;51.380;13.372;2023-03-30T11:07:34;6.60;;;2.08;;
68523;SDS011;55524;51.380;13.372;2023-03-30T11:12:39;3.20;;;1.90;;
68523;SDS011;55524;51.380;13.372;2023-03-30T11:20:32;4.95;;;1.52;;
68523;SDS011;55524;51.380;13.372;2023-03-30T11:26:19;7.47;;;2.63;;
68523;SDS011;55524;51.380;13.372;2023-03-30T11:28:59;7.68;;;1.70;;
68523;SDS011;55524;51.380;13.372;2023-03-30T11:36:50;4.13;;;1.70;;
68523;SDS011;55524;51.380;13.372;2023-03-30T11:39:26;9.73;;;1.95;;
68523;SDS011;55524;51.380;13.372;2023-03-30T11:42:42;9.48;;;1.67;;
68523;SDS011;55524;51.380;13.372;2023-03-30T11:44:54;6.93;;;1.70;;
68523;SDS011;55524;51.380;13.372;2023-03-30T11:50:11;5.80;;;2.15;;
68523;SDS011;55524;51.380;13.372;2023-03-30T11:53:10;4.20;;;1.80;;
68523;SDS011;55524;51.380;13.372;2023-03-30T11:56:06;6.35;;;2.20;;
68523;SDS011;55524;51.380;13.372;2023-03-30T12:04:36;4.45;;;1.75;;
68523;SDS011;55524;51.380;13.372;2023-03-30T12:07:23;8.70;;;2.63;;
68523;SDS011;55524;51.380;13.372;2023-03-30T12:10:01;5.78;;;2.08;;
68523;SDS011;55524;51.380;13.372;2023-03-30T12:12:33;6.57;;;2.30;;
68523;SDS011;55524;51.380;13.372;2023-03-30T12:15:14;4.55;;;2.08;;
68523;SDS011;55524;51.380;13.372;2023-03-30T12:18:09;4.47;;;2.33;;
68523;SDS011;55524;51.380;13.372;2023-03-30T12:23:51;8.00;;;2.30;;
68523;SDS011;55524;51.380;13.372;2023-03-30T12:26:28;3.75;;;2.38;;
68523;SDS011;55524;51.380;13.372;2023-03-30T12:34:22;5.18;;;2.53;;
68523;SDS011;55524;51.380;13.372;2023-03-30T12:42:43;7.40;;;2.70;;
68523;SDS011;55524;51.380;13.372;2023-03-30T12:45:29;5.38;;;2.60;;
68523;SDS011;55524;51.380;13.372;2023-03-30T12:48:13;6.65;;;2.65;;
68523;SDS011;55524;51.380;13.372;2023-03-30T13:05:02;9.40;;;3.70;;
68523;SDS011;55524;51.380;13.372;2023-03-30T13:07:49;5.60;;;3.25;;
68523;SDS011;55524;51.380;13.372;2023-03-30T13:12:54;8.77;;;2.80;;
68523;SDS011;55524;51.380;13.372;2023-03-30T13:25:46;6.53;;;3.20;;
68523;SDS011;55524;51.380;13.372;2023-03-30T13:31:33;7.63;;;2.90;;
68523;SDS011;55524;51.380;13.372;2023-03-30T13:37:00;5.55;;;2.70;;
68523;SDS011;55524;51.380;13.372;2023-03-30T13:42:49;5.57;;;2.25;;
68523;SDS011;55524;51.380;13.372;2023-03-30T13:45:53;4.35;;;2.47;;
68523;SDS011;55524;51.380;13.372;2023-03-30T13:50:59;7.28;;;2.47;;
68523;SDS011;55524;51.380;13.372;2023-03-30T13:53:27;3.53;;;1.95;;
68523;SDS011;55524;51.380;13.372;2023-03-30T13:56:07;4.38;;;1.92;;
68523;SDS011;55524;51.380;13.372;2023-03-30T13:58:35;7.72;;;2.33;;
68523;SDS011;55524;51.380;13.372;2023-03-30T14:01:10;5.93;;;2.00;;
68523;SDS011;55524;51.380;13.372;2023-03-30T14:03:42;3.63;;;2.00;;
68523;SDS011;55524;51.380;13.372;2023-03-30T14:06:19;4.70;;;2.22;;
68523;SDS011;55524;51.380;13.372;2023-03-30T14:11:32;4.45;;;2.15;;
68523;SDS011;55524;51.380;13.372;2023-03-30T14:14:16;8.15;;;2.03;;
68523;SDS011;55524;51.380;13.372;2023-03-30T14:17:03;5.05;;;2.00;;
68523;SDS011;55524;51.380;13.372;2023-03-30T14:20:06;3.03;;;1.90;;
68523;SDS011;55524;51.380;13.372;2023-03-30T14:22:44;4.20;;;2.00;;
68523;SDS011;55524;51.380;13.372;2023-03-30T14:27:57;6.20;;;1.95;;
68523;SDS011;55524;51.380;13.372;2023-03-30T14:30:31;7.38;;;2.03;;
68523;SDS011;55524;51.380;13.372;2023-03-30T14:33:05;2.33;;;1.60;;
68523;SDS011;55524;51.380;13.372;2023-03-30T14:35:38;7.45;;;1.92;;
68523;SDS011;55524;51.380;13.372;2023-03-30T14:38:30;2.47;;;1.60;;
68523;SDS011;55524;51.380;13.372;2023-03-30T14:41:01;2.08;;;1.30;;
68523;SDS011;55524;51.380;13.372;2023-03-30T14:43:32;8.57;;;1.55;;
68523;SDS011;55524;51.380;13.372;2023-03-30T14:46:01;9.18;;;1.58;;
68523;SDS011;55524;51.380;13.372;2023-03-30T14:48:40;11.00;;;1.90;;
68523;SDS011;55524;51.380;13.372;2023-03-30T14:51:21;10.80;;;1.90;;
68523;SDS011;55524;51.380;13.372;2023-03-30T14:53:58;10.23;;;1.70;;
68523;SDS011;55524;51.380;13.372;2023-03-30T14:56:25;7.93;;;2.00;;
68523;SDS011;55524;51.380;13.372;2023-03-30T14:58:52;2.08;;;1.58;;
68523;SDS011;55524;51.380;13.372;2023-03-30T15:01:22;22.55;;;1.10;;
68523;SDS011;55524;51.380;13.372;2023-03-30T15:04:17;0.50;;;0.50;;
68523;SDS011;55524;51.380;13.372;2023-03-30T15:06:44;3.78;;;0.50;;
68523;SDS011;55524;51.380;13.372;2023-03-30T15:09:16;4.07;;;0.60;;
68523;SDS011;55524;51.380;13.372;2023-03-30T15:11:45;5.00;;;0.60;;
68523;SDS011;55524;51.380;13.372;2023-03-30T15:14:20;7.57;;;0.93;;
68523;SDS011;55524;51.380;13.372;2023-03-30T15:16:47;0.40;;;0.40;;
68523;SDS011;55524;51.380;13.372;2023-03-30T15:21:58;1.95;;;0.57;;
68523;SDS011;55524;51.380;13.372;2023-03-30T15:24:33;0.57;;;0.40;;
68523;SDS011;55524;51.380;13.372;2023-03-30T15:27:02;5.63;;;0.60;;
68523;SDS011;55524;51.380;13.372;2023-03-30T15:29:35;0.50;;;0.50;;
68523;SDS011;55524;51.380;13.372;2023-03-30T15:32:15;0.50;;;0.50;;
68523;SDS011;55524;51.380;13.372;2023-03-30T15:35:04;1.00;;;0.40;;
68523;SDS011;55524;51.380;13.372;2023-03-30T15:40:43;3.75;;;1.20;;
68523;SDS011;55524;51.380;13.372;2023-03-30T15:45:39;2.10;;;0.60;;
68523;SDS011;55524;51.380;13.372;2023-03-30T15:48:11;2.78;;;0.57;;
68523;SDS011;55524;51.380;13.372;2023-03-30T15:50:40;0.75;;;0.70;;
68523;SDS011;55524;51.380;13.372;2023-03-30T15:53:11;0.73;;;0.60;;
68523;SDS011;55524;51.380;13.372;2023-03-30T15:55:43;2.10;;;0.70;;
68523;SDS011;55524;51.380;13.372;2023-03-30T15:58:17;0.85;;;0.77;;
68523;SDS011;55524;51.380;13.372;2023-03-30T16:00:48;0.70;;;0.70;;
68523;SDS011;55524;51.380;13.372;2023-03-30T16:03:17;1.30;;;0.70;;
68523;SDS011;55524;51.380;13.372;2023-03-30T16:05:58;0.90;;;0.60;;
68523;SDS011;55524;51.380;13.372;2023-03-30T16:08:25;4.15;;;0.65;;
68523;SDS011;55524;51.380;13.372;2023-03-30T16:10:51;3.78;;;0.63;;
68523;SDS011;55524;51.380;13.372;2023-03-30T16:13:18;3.58;;;0.70;;
68523;SDS011;55524;51.380;13.372;2023-03-30T16:15:44;4.85;;;1.00;;
68523;SDS011;55524;51.380;13.372;2023-03-30T16:18:10;1.67;;;0.63;;
68523;SDS011;55524;51.380;13.372;2023-03-30T16:20:37;5.00;;;0.85;;
68523;SDS011;55524;51.380;13.372;2023-03-30T16:23:03;3.13;;;0.70;;
68523;SDS011;55524;51.380;13.372;2023-03-30T16:25:32;1.65;;;0.80;;
68523;SDS011;55524;51.380;13.372;2023-03-30T16:27:59;6.90;;;0.93;;
68523;SDS011;55524;51.380;13.372;2023-03-30T16:30:29;4.57;;;0.70;;
68523;SDS011;55524;51.380;13.372;2023-03-30T16:32:58;2.88;;;0.90;;
68523;SDS011;55524;51.380;13.372;2023-03-30T16:35:25;0.88;;;0.77;;
68523;SDS011;55524;51.380;13.372;2023-03-30T16:37:51;4.55;;;0.98;;
68523;SDS011;55524;51.380;13.372;2023-03-30T16:43:07;1.60;;;0.80;;
68523;SDS011;55524;51.380;13.372;2023-03-30T16:45:34;0.95;;;0.70;;
68523;SDS011;55524;51.380;13.372;2023-03-30T16:48:00;11.98;;;1.33;;
68523;SDS011;55524;51.380;13.372;2023-03-30T16:52:56;0.60;;;0.60;;
68523;SDS011;55524;51.380;13.372;2023-03-30T16:55:23;2.78;;;0.73;;
68523;SDS011;55524;51.380;13.372;2023-03-30T16:57:49;0.65;;;0.65;;
68523;SDS011;55524;51.380;13.372;2023-03-30T17:00:16;1.42;;;0.80;;
68523;SDS011;55524;51.380;13.372;2023-03-30T17:02:45;1.90;;;0.80;;
68523;SDS011;55524;51.380;13.372;2023-03-30T17:05:12;0.70;;;0.70;;
68523;SDS011;55524;51.380;13.372;2023-03-30T17:07:39;3.10;;;0.80;;
68523;SDS011;55524;51.380;13.372;2023-03-30T17:12:49;0.80;;;0.80;;
68523;SDS011;55524;51.380;13.372;2023-03-30T17:15:16;4.75;;;1.10;;
68523;SDS011;55524;51.380;13.372;2023-03-30T17:17:44;2.38;;;0.90;;
68523;SDS011;55524;51.380;13.372;2023-03-30T17:20:18;0.82;;;0.70;;
68523;SDS011;55524;51.380;13.372;2023-03-30T17:23:02;2.43;;;1.00;;
68523;SDS011;55524;51.380;13.372;2023-03-30T17:25:29;4.47;;;1.10;;
68523;SDS011;55524;51.380;13.372;2023-03-30T17:27:55;2.30;;;0.80;;
68523;SDS011;55524;51.380;13.372;2023-03-30T17:32:50;2.28;;;0.75;;
68523;SDS011;55524;51.380;13.372;2023-03-30T17:35:19;2.15;;;0.70;;
68523;SDS011;55524;51.380;13.372;2023-03-30T17:37:46;3.35;;;0.70;;
68523;SDS011;55524;51.380;13.372;2023-03-30T17:42:43;0.68;;;0.68;;
68523;SDS011;55524;51.380;13.372;2023-03-30T17:45:11;1.23;;;0.75;;
68523;SDS011;55524;51.380;13.372;2023-03-30T17:47:39;1.33;;;0.80;;
68523;SDS011;55524;51.380;13.372;2023-03-30T17:50:28;2.92;;;0.90;;
68523;SDS011;55524;51.380;13.372;2023-03-30T17:52:57;1.42;;;0.70;;
68523;SDS011;55524;51.380;13.372;2023-03-30T17:55:25;2.40;;;0.73;;
68523;SDS011;55524;51.380;13.372;2023-03-30T17:57:53;2.33;;;0.80;;
68523;SDS011;55524;51.380;13.372;2023-03-30T18:00:24;1.08;;;0.70;;
68523;SDS011;55524;51.380;13.372;2023-03-30T18:02:52;1.00;;;0.90;;
68523;SDS011;55524;51.380;13.372;2023-03-30T18:05:20;2.90;;;1.08;;
68523;SDS011;55524;51.380;13.372;2023-03-30T18:07:49;1.95;;;0.77;;
68523;SDS011;55524;51.380;13.372;2023-03-30T18:10:35;2.10;;;0.80;;
68523;SDS011;55524;51.380;13.372;2023-03-30T18:13:03;1.92;;;1.10;;